sensor_id;sensor_type;location;lat;lon;timestamp;pressure;altitude;pressure_sealevel;temperature;humidity
37852;BME280;23691;52.486;4.650;2023-09-19T00:02:04;100588.91;;;18.76;51.22
37852;BME280;23691;52.486;4.650;2023-09-19T00:04:33;100589.06;;;18.81;51.72
37852;BME280;23691;52.486;4.650;2023-09-19T00:07:01;100599.91;;;18.81;51.95
37852;BME280;23691;52.486;4.650;2023-09-19T00:09:29;100597.19;;;18.81;51.06
37852;BME280;23691;52.486;4.650;2023-09-19T00:11:57;100604.50;;;18.81;51.18
37852;BME280;23691;52.486;4.650;2023-09-19T00:14:29;100610.75;;;18.81;51.27
37852;BME280;23691;52.486;4.650;2023-09-19T00:16:54;100607.44;;;18.79;50.83
37852;BME280;23691;52.486;4.650;2023-09-19T00:19:20;100603.88;;;18.79;50.17
37852;BME280;23691;52.486;4.650;2023-09-19T00:21:45;100609.09;;;18.80;50.42
37852;BME280;23691;52.486;4.650;2023-09-19T00:24:12;100608.03;;;18.81;50.37
37852;BME280;23691;52.486;4.650;2023-09-19T00:26:41;100621.94;;;18.85;50.60
37852;BME280;23691;52.486;4.650;2023-09-19T00:29:08;100610.53;;;18.83;50.77
37852;BME280;23691;52.486;4.650;2023-09-19T00:31:34;100618.66;;;18.83;50.09
37852;BME280;23691;52.486;4.650;2023-09-19T00:34:03;100622.03;;;18.78;50.26
37852;BME280;23691;52.486;4.650;2023-09-19T00:36:37;100619.53;;;18.77;50.62
37852;BME280;23691;52.486;4.650;2023-09-19T00:39:06;100623.22;;;18.82;50.64
37852;BME280;23691;52.486;4.650;2023-09-19T00:41:32;100613.47;;;18.81;50.96
37852;BME280;23691;52.486;4.650;2023-09-19T00:44:02;100616.38;;;18.80;51.07
37852;BME280;23691;52.486;4.650;2023-09-19T00:46:32;100619.09;;;18.80;50.92
37852;BME280;23691;52.486;4.650;2023-09-19T00:48:58;100612.63;;;18.81;51.34
37852;BME280;23691;52.486;4.650;2023-09-19T00:51:42;100620.53;;;18.82;51.26
37852;BME280;23691;52.486;4.650;2023-09-19T00:54:12;100630.78;;;18.80;51.35
37852;BME280;23691;52.486;4.650;2023-09-19T00:56:45;100615.78;;;18.78;51.20
37852;BME280;23691;52.486;4.650;2023-09-19T00:59:15;100607.63;;;18.78;51.34
37852;BME280;23691;52.486;4.650;2023-09-19T01:01:40;100626.19;;;18.81;51.31
37852;BME280;23691;52.486;4.650;2023-09-19T01:04:10;100621.59;;;18.81;51.53
37852;BME280;23691;52.486;4.650;2023-09-19T01:06:36;100636.19;;;18.80;51.38
37852;BME280;23691;52.486;4.650;2023-09-19T01:09:04;100622.66;;;18.80;51.54
37852;BME280;23691;52.486;4.650;2023-09-19T01:11:40;100621.59;;;18.81;52.29
37852;BME280;23691;52.486;4.650;2023-09-19T01:16:50;100631.97;;;18.84;52.96
37852;BME280;23691;52.486;4.650;2023-09-19T01:22:25;100634.22;;;18.87;52.20
37852;BME280;23691;52.486;4.650;2023-09-19T01:25:20;100644.69;;;18.84;52.17
37852;BME280;23691;52.486;4.650;2023-09-19T01:28:20;100638.66;;;18.82;52.30
37852;BME280;23691;52.486;4.650;2023-09-19T01:30:56;100637.44;;;18.78;52.84
37852;BME280;23691;52.486;4.650;2023-09-19T01:33:24;100619.34;;;18.78;52.99
37852;BME280;23691;52.486;4.650;2023-09-19T01:35:52;100628.91;;;18.81;53.07
37852;BME280;23691;52.486;4.650;2023-09-19T01:38:19;100633.84;;;18.84;53.09
37852;BME280;23691;52.486;4.650;2023-09-19T01:40:57;100638.47;;;18.83;52.78
37852;BME280;23691;52.486;4.650;2023-09-19T01:43:37;100630.78;;;18.80;52.22
37852;BME280;23691;52.486;4.650;2023-09-19T01:46:13;100628.44;;;18.84;51.32
37852;BME280;23691;52.486;4.650;2023-09-19T01:52:02;100628.06;;;18.80;52.04
37852;BME280;23691;52.486;4.650;2023-09-19T01:54:34;100632.88;;;18.78;52.06
37852;BME280;23691;52.486;4.650;2023-09-19T01:57:12;100628.91;;;18.81;51.54
37852;BME280;23691;52.486;4.650;2023-09-19T01:59:52;100647.25;;;18.79;51.57
37852;BME280;23691;52.486;4.650;2023-09-19T02:02:21;100630.38;;;18.77;52.14
37852;BME280;23691;52.486;4.650;2023-09-19T02:04:48;100631.00;;;18.79;52.45
37852;BME280;23691;52.486;4.650;2023-09-19T02:07:16;100636.56;;;18.84;52.08
37852;BME280;23691;52.486;4.650;2023-09-19T02:09:42;100637.38;;;18.84;52.43
37852;BME280;23691;52.486;4.650;2023-09-19T02:12:11;100642.34;;;18.87;52.68
37852;BME280;23691;52.486;4.650;2023-09-19T02:14:36;100639.66;;;18.87;52.73
37852;BME280;23691;52.486;4.650;2023-09-19T02:17:03;100637.78;;;18.88;52.04
37852;BME280;23691;52.486;4.650;2023-09-19T02:19:36;100616.53;;;18.85;51.60
37852;BME280;23691;52.486;4.650;2023-09-19T02:22:04;100636.56;;;18.84;51.28
37852;BME280;23691;52.486;4.650;2023-09-19T02:24:41;100649.91;;;18.85;51.08
37852;BME280;23691;52.486;4.650;2023-09-19T02:27:11;100636.13;;;18.87;51.76
37852;BME280;23691;52.486;4.650;2023-09-19T02:29:38;100649.06;;;18.85;52.46
37852;BME280;23691;52.486;4.650;2023-09-19T02:32:03;100651.56;;;18.86;52.68
37852;BME280;23691;52.486;4.650;2023-09-19T02:34:31;100644.25;;;18.87;53.43
37852;BME280;23691;52.486;4.650;2023-09-19T02:37:06;100646.97;;;18.87;52.98
37852;BME280;23691;52.486;4.650;2023-09-19T02:39:32;100651.91;;;18.90;52.92
37852;BME280;23691;52.486;4.650;2023-09-19T02:41:59;100637.53;;;18.90;53.47
37852;BME280;23691;52.486;4.650;2023-09-19T02:44:24;100650.44;;;18.94;53.26
37852;BME280;23691;52.486;4.650;2023-09-19T02:46:53;100639.13;;;18.97;53.31
37852;BME280;23691;52.486;4.650;2023-09-19T02:49:23;100636.06;;;18.94;53.67
37852;BME280;23691;52.486;4.650;2023-09-19T02:51:48;100633.13;;;18.95;53.67
37852;BME280;23691;52.486;4.650;2023-09-19T02:54:16;100639.75;;;18.99;53.90
37852;BME280;23691;52.486;4.650;2023-09-19T02:56:42;100645.63;;;18.96;55.14
37852;BME280;23691;52.486;4.650;2023-09-19T02:59:08;100637.78;;;18.88;55.98
37852;BME280;23691;52.486;4.650;2023-09-19T03:01:35;100637.63;;;18.83;56.71
37852;BME280;23691;52.486;4.650;2023-09-19T03:04:02;100639.50;;;18.82;56.78
37852;BME280;23691;52.486;4.650;2023-09-19T03:06:28;100632.03;;;18.78;57.05
37852;BME280;23691;52.486;4.650;2023-09-19T03:08:59;100647.47;;;18.77;56.82
37852;BME280;23691;52.486;4.650;2023-09-19T03:11:25;100633.72;;;18.79;56.96
37852;BME280;23691;52.486;4.650;2023-09-19T03:13:54;100635.34;;;18.80;57.09
37852;BME280;23691;52.486;4.650;2023-09-19T03:16:23;100649.75;;;18.80;56.79
37852;BME280;23691;52.486;4.650;2023-09-19T03:18:48;100632.03;;;18.78;56.00
37852;BME280;23691;52.486;4.650;2023-09-19T03:21:15;100633.09;;;18.77;55.13
37852;BME280;23691;52.486;4.650;2023-09-19T03:23:41;100637.88;;;18.75;54.67
37852;BME280;23691;52.486;4.650;2023-09-19T03:26:06;100627.69;;;18.77;54.73
37852;BME280;23691;52.486;4.650;2023-09-19T03:28:33;100633.34;;;18.69;54.53
37852;BME280;23691;52.486;4.650;2023-09-19T03:31:06;100643.38;;;18.68;54.66
37852;BME280;23691;52.486;4.650;2023-09-19T03:33:35;100649.81;;;18.67;54.11
37852;BME280;23691;52.486;4.650;2023-09-19T03:36:01;100664.81;;;18.70;54.30
37852;BME280;23691;52.486;4.650;2023-09-19T03:38:32;100654.44;;;18.66;54.04
37852;BME280;23691;52.486;4.650;2023-09-19T03:40:58;100641.91;;;18.65;53.73
37852;BME280;23691;52.486;4.650;2023-09-19T03:43:24;100667.16;;;18.66;53.77
37852;BME280;23691;52.486;4.650;2023-09-19T03:45:49;100664.44;;;18.66;54.31
37852;BME280;23691;52.486;4.650;2023-09-19T03:48:19;100660.66;;;18.67;54.19
37852;BME280;23691;52.486;4.650;2023-09-19T03:50:44;100678.59;;;18.68;54.17
37852;BME280;23691;52.486;4.650;2023-09-19T03:53:10;100681.13;;;18.63;53.37
37852;BME280;23691;52.486;4.650;2023-09-19T03:55:38;100676.75;;;18.62;53.54
37852;BME280;23691;52.486;4.650;2023-09-19T03:58:06;100697.16;;;18.64;53.54
37852;BME280;23691;52.486;4.650;2023-09-19T04:00:32;100682.19;;;18.62;53.33
37852;BME280;23691;52.486;4.650;2023-09-19T04:02:59;100694.50;;;18.58;53.02
37852;BME280;23691;52.486;4.650;2023-09-19T04:05:27;100695.34;;;18.58;52.62
37852;BME280;23691;52.486;4.650;2023-09-19T04:07:58;100689.31;;;18.56;52.88
37852;BME280;23691;52.486;4.650;2023-09-19T04:10:26;100693.69;;;18.57;52.37
37852;BME280;23691;52.486;4.650;2023-09-19T04:12:52;100718.31;;;18.56;52.34
37852;BME280;23691;52.486;4.650;2023-09-19T04:15:19;100692.66;;;18.58;51.53
37852;BME280;23691;52.486;4.650;2023-09-19T04:17:44;100687.03;;;18.53;51.84
37852;BME280;23691;52.486;4.650;2023-09-19T04:20:15;100708.34;;;18.50;51.78
37852;BME280;23691;52.486;4.650;2023-09-19T04:22:44;100691.00;;;18.51;51.76
37852;BME280;23691;52.486;4.650;2023-09-19T04:25:09;100691.00;;;18.51;51.83
37852;BME280;23691;52.486;4.650;2023-09-19T04:27:35;100680.00;;;18.45;51.80
37852;BME280;23691;52.486;4.650;2023-09-19T04:30:01;100670.44;;;18.43;51.68
37852;BME280;23691;52.486;4.650;2023-09-19T04:32:38;100689.66;;;18.41;52.03
37852;BME280;23691;52.486;4.650;2023-09-19T04:35:08;100678.38;;;18.44;52.21
37852;BME280;23691;52.486;4.650;2023-09-19T04:37:39;100693.56;;;18.45;52.22
37852;BME280;23691;52.486;4.650;2023-09-19T04:40:08;100696.88;;;18.48;52.51
37852;BME280;23691;52.486;4.650;2023-09-19T04:42:43;100684.59;;;18.45;52.81
37852;BME280;23691;52.486;4.650;2023-09-19T04:45:10;100697.94;;;18.47;53.47
37852;BME280;23691;52.486;4.650;2023-09-19T04:47:42;100697.94;;;18.47;53.33
37852;BME280;23691;52.486;4.650;2023-09-19T04:50:12;100691.94;;;18.38;52.59
37852;BME280;23691;52.486;4.650;2023-09-19T04:52:42;100689.06;;;18.33;52.17
37852;BME280;23691;52.486;4.650;2023-09-19T04:55:15;100698.88;;;18.34;51.97
37852;BME280;23691;52.486;4.650;2023-09-19T04:57:48;100683.81;;;18.38;52.37
37852;BME280;23691;52.486;4.650;2023-09-19T05:00:27;100687.97;;;18.40;52.00
37852;BME280;23691;52.486;4.650;2023-09-19T05:02:56;100680.47;;;18.42;51.75
37852;BME280;23691;52.486;4.650;2023-09-19T05:05:22;100678.97;;;18.47;52.10
37852;BME280;23691;52.486;4.650;2023-09-19T05:07:49;100696.88;;;18.48;51.97
37852;BME280;23691;52.486;4.650;2023-09-19T05:10:15;100695.84;;;18.49;51.33
37852;BME280;23691;52.486;4.650;2023-09-19T05:12:47;100682.31;;;18.49;51.48
37852;BME280;23691;52.486;4.650;2023-09-19T05:15:19;100689.00;;;18.46;51.91
37852;BME280;23691;52.486;4.650;2023-09-19T05:17:50;100702.09;;;18.49;51.98
37852;BME280;23691;52.486;4.650;2023-09-19T05:20:20;100696.34;;;18.39;52.78
37852;BME280;23691;52.486;4.650;2023-09-19T05:23:05;100699.22;;;18.44;53.70
37852;BME280;23691;52.486;4.650;2023-09-19T05:25:39;100707.72;;;18.48;54.21
37852;BME280;23691;52.486;4.650;2023-09-19T05:28:06;100695.84;;;18.49;54.33
37852;BME280;23691;52.486;4.650;2023-09-19T05:30:33;100692.28;;;18.48;54.46
37852;BME280;23691;52.486;4.650;2023-09-19T05:33:02;100696.69;;;18.49;54.43
37852;BME280;23691;52.486;4.650;2023-09-19T05:35:27;100705.63;;;18.50;54.62
37852;BME280;23691;52.486;4.650;2023-09-19T05:37:53;100717.28;;;18.50;55.00
37852;BME280;23691;52.486;4.650;2023-09-19T05:40:20;100717.72;;;18.47;56.20
37852;BME280;23691;52.486;4.650;2023-09-19T05:42:46;100717.06;;;18.52;56.96
37852;BME280;23691;52.486;4.650;2023-09-19T05:45:12;100723.31;;;18.52;58.00
37852;BME280;23691;52.486;4.650;2023-09-19T05:47:41;100712.47;;;18.52;58.39
37852;BME280;23691;52.486;4.650;2023-09-19T05:50:19;100717.06;;;18.52;58.87
37852;BME280;23691;52.486;4.650;2023-09-19T05:52:53;100697.94;;;18.47;59.17
37852;BME280;23691;52.486;4.650;2023-09-19T05:55:19;100706.69;;;18.49;59.21
37852;BME280;23691;52.486;4.650;2023-09-19T05:57:52;100716.25;;;18.51;58.01
37852;BME280;23691;52.486;4.650;2023-09-19T06:00:22;100710.22;;;18.49;57.41
37852;BME280;23691;52.486;4.650;2023-09-19T06:02:52;100706.44;;;18.50;57.39
37852;BME280;23691;52.486;4.650;2023-09-19T06:05:21;100696.00;;;18.54;57.34
37852;BME280;23691;52.486;4.650;2023-09-19T06:07:46;100680.53;;;18.61;57.27
37852;BME280;23691;52.486;4.650;2023-09-19T06:10:12;100689.19;;;18.70;56.93
37852;BME280;23691;52.486;4.650;2023-09-19T06:12:44;100699.13;;;18.82;56.58
37852;BME280;23691;52.486;4.650;2023-09-19T06:15:14;100690.56;;;18.85;56.37
37852;BME280;23691;52.486;4.650;2023-09-19T06:17:51;100689.03;;;18.90;55.59
37852;BME280;23691;52.486;4.650;2023-09-19T06:20:17;100691.69;;;18.96;55.04
37852;BME280;23691;52.486;4.650;2023-09-19T06:22:45;100696.47;;;19.01;55.16
37852;BME280;23691;52.486;4.650;2023-09-19T06:25:12;100705.41;;;19.01;55.10
37852;BME280;23691;52.486;4.650;2023-09-19T06:27:42;100695.53;;;19.07;54.92
37852;BME280;23691;52.486;4.650;2023-09-19T06:30:14;100700.53;;;19.10;54.22
37852;BME280;23691;52.486;4.650;2023-09-19T06:32:41;100701.59;;;19.09;54.27
37852;BME280;23691;52.486;4.650;2023-09-19T06:35:16;100701.13;;;19.12;54.38
37852;BME280;23691;52.486;4.650;2023-09-19T06:37:43;100695.03;;;19.17;54.75
37852;BME280;23691;52.486;4.650;2023-09-19T06:40:15;100702.75;;;19.20;55.20
37852;BME280;23691;52.486;4.650;2023-09-19T06:42:44;100706.63;;;19.24;55.46
37852;BME280;23691;52.486;4.650;2023-09-19T06:45:17;100705.97;;;19.28;55.77
37852;BME280;23691;52.486;4.650;2023-09-19T06:47:51;100714.03;;;19.35;55.40
37852;BME280;23691;52.486;4.650;2023-09-19T06:50:21;100711.22;;;19.42;54.77
37852;BME280;23691;52.486;4.650;2023-09-19T06:52:51;100723.31;;;19.46;54.11
37852;BME280;23691;52.486;4.650;2023-09-19T06:55:18;100717.25;;;19.44;54.35
37852;BME280;23691;52.486;4.650;2023-09-19T06:57:46;100729.56;;;19.46;54.40
37852;BME280;23691;52.486;4.650;2023-09-19T07:00:18;100724.66;;;19.55;53.70
37852;BME280;23691;52.486;4.650;2023-09-19T07:03:04;100723.88;;;19.66;52.97
37852;BME280;23691;52.486;4.650;2023-09-19T07:05:35;100734.16;;;19.64;52.41
37852;BME280;23691;52.486;4.650;2023-09-19T07:08:08;100730.78;;;19.69;52.00
37852;BME280;23691;52.486;4.650;2023-09-19T07:10:36;100730.78;;;19.69;52.05
37852;BME280;23691;52.486;4.650;2023-09-19T07:13:05;100754.53;;;19.73;51.67
37852;BME280;23691;52.486;4.650;2023-09-19T07:15:39;100740.53;;;19.77;51.98
37852;BME280;23691;52.486;4.650;2023-09-19T07:18:07;100739.44;;;19.78;52.49
37852;BME280;23691;52.486;4.650;2023-09-19T07:20:36;100739.38;;;19.84;52.36
37852;BME280;23691;52.486;4.650;2023-09-19T07:23:05;100740.56;;;19.88;52.90
37852;BME280;23691;52.486;4.650;2023-09-19T07:25:31;100744.13;;;19.89;51.96
37852;BME280;23691;52.486;4.650;2023-09-19T07:28:02;100734.44;;;19.93;51.49
37852;BME280;23691;52.486;4.650;2023-09-19T07:30:31;100726.91;;;19.95;51.70
37852;BME280;23691;52.486;4.650;2023-09-19T07:32:59;100736.63;;;20.03;51.92
37852;BME280;23691;52.486;4.650;2023-09-19T07:35:25;100747.41;;;20.09;51.79
37852;BME280;23691;52.486;4.650;2023-09-19T07:37:52;100741.34;;;20.26;51.49
37852;BME280;23691;52.486;4.650;2023-09-19T07:40:21;100741.47;;;20.43;51.27
37852;BME280;23691;52.486;4.650;2023-09-19T07:43:05;100748.34;;;20.45;50.95
37852;BME280;23691;52.486;4.650;2023-09-19T07:45:35;100734.91;;;20.50;50.99
37852;BME280;23691;52.486;4.650;2023-09-19T07:48:18;100731.16;;;20.63;50.53
37852;BME280;23691;52.486;4.650;2023-09-19T07:50:44;100738.75;;;20.73;50.14
37852;BME280;23691;52.486;4.650;2023-09-19T07:53:12;100745.25;;;20.84;49.69
37852;BME280;23691;52.486;4.650;2023-09-19T07:55:42;100725.63;;;20.93;49.60
37852;BME280;23691;52.486;4.650;2023-09-19T07:58:08;100724.22;;;21.02;49.73
37852;BME280;23691;52.486;4.650;2023-09-19T08:00:34;100714.06;;;21.10;49.84
37852;BME280;23691;52.486;4.650;2023-09-19T08:03:00;100718.78;;;21.14;49.71
37852;BME280;23691;52.486;4.650;2023-09-19T08:05:26;100708.03;;;21.19;49.35
37852;BME280;23691;52.486;4.650;2023-09-19T08:07:52;100713.81;;;21.23;50.05
37852;BME280;23691;52.486;4.650;2023-09-19T08:10:17;100702.31;;;21.33;49.80
37852;BME280;23691;52.486;4.650;2023-09-19T08:12:45;100710.47;;;21.33;48.96
37852;BME280;23691;52.486;4.650;2023-09-19T08:15:19;100709.16;;;21.35;48.57
37852;BME280;23691;52.486;4.650;2023-09-19T08:17:45;100697.81;;;21.38;48.53
37852;BME280;23691;52.486;4.650;2023-09-19T08:20:11;100714.28;;;21.43;48.18
37852;BME280;23691;52.486;4.650;2023-09-19T08:22:50;100706.56;;;21.52;48.16
37852;BME280;23691;52.486;4.650;2023-09-19T08:25:23;100715.66;;;21.58;48.30
37852;BME280;23691;52.486;4.650;2023-09-19T08:27:50;100714.94;;;21.62;48.20
37852;BME280;23691;52.486;4.650;2023-09-19T08:30:17;100715.53;;;21.64;48.28
37852;BME280;23691;52.486;4.650;2023-09-19T08:32:43;100716.25;;;21.60;48.36
37852;BME280;23691;52.486;4.650;2023-09-19T08:35:10;100719.56;;;21.62;48.28
37852;BME280;23691;52.486;4.650;2023-09-19T08:37:35;100719.78;;;21.72;48.28
37852;BME280;23691;52.486;4.650;2023-09-19T08:40:01;100710.41;;;21.68;49.01
37852;BME280;23691;52.486;4.650;2023-09-19T08:42:27;100708.19;;;21.65;49.02
37852;BME280;23691;52.486;4.650;2023-09-19T08:44:52;100711.84;;;21.71;48.58
37852;BME280;23691;52.486;4.650;2023-09-19T08:47:31;100704.03;;;21.74;48.56
37852;BME280;23691;52.486;4.650;2023-09-19T08:50:14;100705.19;;;21.78;49.11
37852;BME280;23691;52.486;4.650;2023-09-19T08:52:46;100708.50;;;21.80;48.80
37852;BME280;23691;52.486;4.650;2023-09-19T08:55:13;100705.03;;;21.85;48.57
37852;BME280;23691;52.486;4.650;2023-09-19T08:57:47;100700.63;;;21.96;48.81
37852;BME280;23691;52.486;4.650;2023-09-19T09:00:14;100701.78;;;22.00;48.72
37852;BME280;23691;52.486;4.650;2023-09-19T09:02:43;100697.69;;;22.14;48.55
37852;BME280;23691;52.486;4.650;2023-09-19T09:05:09;100690.31;;;22.26;48.36
37852;BME280;23691;52.486;4.650;2023-09-19T09:07:38;100690.34;;;22.43;48.24
37852;BME280;23691;52.486;4.650;2023-09-19T09:10:04;100697.34;;;22.56;48.28
37852;BME280;23691;52.486;4.650;2023-09-19T09:12:30;100682.66;;;22.57;48.27
37852;BME280;23691;52.486;4.650;2023-09-19T09:14:56;100691.16;;;22.44;48.77
37852;BME280;23691;52.486;4.650;2023-09-19T09:17:25;100707.00;;;22.47;49.02
37852;BME280;23691;52.486;4.650;2023-09-19T09:19:53;100710.25;;;22.61;49.43
37852;BME280;23691;52.486;4.650;2023-09-19T09:22:19;100697.84;;;22.70;49.83
37852;BME280;23691;52.486;4.650;2023-09-19T09:24:53;100698.44;;;22.89;49.42
37852;BME280;23691;52.486;4.650;2023-09-19T09:27:19;100689.56;;;22.99;49.39
37852;BME280;23691;52.486;4.650;2023-09-19T09:29:46;100689.31;;;23.17;49.46
37852;BME280;23691;52.486;4.650;2023-09-19T09:32:24;100681.59;;;23.31;49.57
37852;BME280;23691;52.486;4.650;2023-09-19T09:34:58;100679.22;;;23.18;50.10
37852;BME280;23691;52.486;4.650;2023-09-19T09:37:24;100705.47;;;23.02;50.24
37852;BME280;23691;52.486;4.650;2023-09-19T09:40:02;100671.06;;;23.01;51.00
37852;BME280;23691;52.486;4.650;2023-09-19T09:42:40;100676.84;;;22.87;51.72
37852;BME280;23691;52.486;4.650;2023-09-19T09:47:53;100667.28;;;22.68;52.36
37852;BME280;23691;52.486;4.650;2023-09-19T09:50:28;100684.81;;;22.72;52.07
37852;BME280;23691;52.486;4.650;2023-09-19T09:53:25;100676.94;;;22.59;52.20
37852;BME280;23691;52.486;4.650;2023-09-19T09:55:59;100675.47;;;22.51;52.66
37852;BME280;23691;52.486;4.650;2023-09-19T09:58:25;100667.13;;;22.58;52.26
37852;BME280;23691;52.486;4.650;2023-09-19T10:00:56;100663.22;;;22.70;51.98
37852;BME280;23691;52.486;4.650;2023-09-19T10:03:31;100645.47;;;22.68;51.97
37852;BME280;23691;52.486;4.650;2023-09-19T10:06:00;100664.88;;;22.71;52.09
37852;BME280;23691;52.486;4.650;2023-09-19T10:08:27;100643.22;;;22.82;51.94
37852;BME280;23691;52.486;4.650;2023-09-19T10:10:56;100649.88;;;22.91;52.12
37852;BME280;23691;52.486;4.650;2023-09-19T10:13:31;100648.56;;;22.93;51.99
37852;BME280;23691;52.486;4.650;2023-09-19T10:15:58;100633.19;;;23.04;51.47
37852;BME280;23691;52.486;4.650;2023-09-19T10:18:25;100636.94;;;23.20;51.60
37852;BME280;23691;52.486;4.650;2023-09-19T10:20:53;100634.97;;;23.15;51.65
37852;BME280;23691;52.486;4.650;2023-09-19T10:23:21;100627.31;;;23.12;51.66
37852;BME280;23691;52.486;4.650;2023-09-19T10:25:51;100621.31;;;23.15;51.75
37852;BME280;23691;52.486;4.650;2023-09-19T10:28:18;100622.66;;;23.13;51.56
37852;BME280;23691;52.486;4.650;2023-09-19T10:30:51;100617.91;;;23.03;51.36
37852;BME280;23691;52.486;4.650;2023-09-19T10:33:18;100615.00;;;22.93;51.66
37852;BME280;23691;52.486;4.650;2023-09-19T10:35:47;100625.38;;;22.74;51.87
37852;BME280;23691;52.486;4.650;2023-09-19T10:38:14;100627.56;;;22.55;52.72
37852;BME280;23691;52.486;4.650;2023-09-19T10:40:44;100624.34;;;22.41;53.48
37852;BME280;23691;52.486;4.650;2023-09-19T10:43:15;100620.78;;;22.41;53.84
37852;BME280;23691;52.486;4.650;2023-09-19T10:45:44;100656.06;;;22.31;54.71
37852;BME280;23691;52.486;4.650;2023-09-19T10:48:10;100651.84;;;22.23;55.74
37852;BME280;23691;52.486;4.650;2023-09-19T10:50:44;100633.81;;;22.22;56.11
37852;BME280;23691;52.486;4.650;2023-09-19T10:53:11;100636.34;;;22.12;56.42
37852;BME280;23691;52.486;4.650;2023-09-19T10:55:38;100622.50;;;22.13;56.52
37852;BME280;23691;52.486;4.650;2023-09-19T10:58:05;100614.50;;;22.23;56.91
37852;BME280;23691;52.486;4.650;2023-09-19T11:00:57;100614.50;;;22.23;56.59
37852;BME280;23691;52.486;4.650;2023-09-19T11:03:27;100602.41;;;22.02;56.80
37852;BME280;23691;52.486;4.650;2023-09-19T11:08:30;100636.97;;;22.31;56.69
37852;BME280;23691;52.486;4.650;2023-09-19T11:10:57;100610.03;;;22.68;56.29
37852;BME280;23691;52.486;4.650;2023-09-19T11:13:29;100603.31;;;22.76;56.09
37852;BME280;23691;52.486;4.650;2023-09-19T11:26:44;100594.06;;;22.77;55.33
37852;BME280;23691;52.486;4.650;2023-09-19T11:29:30;100607.66;;;22.55;55.76
37852;BME280;23691;52.486;4.650;2023-09-19T11:31:59;100609.81;;;22.36;56.20
37852;BME280;23691;52.486;4.650;2023-09-19T11:40:06;100597.16;;;22.29;57.71
37852;BME280;23691;52.486;4.650;2023-09-19T11:46:00;100631.13;;;22.10;58.57
37852;BME280;23691;52.486;4.650;2023-09-19T11:48:15;100597.97;;;21.96;59.38
37852;BME280;23691;52.486;4.650;2023-09-19T11:50:47;100602.97;;;21.87;59.62
37852;BME280;23691;52.486;4.650;2023-09-19T11:53:16;100601.47;;;21.80;60.34
37852;BME280;23691;52.486;4.650;2023-09-19T11:55:42;100590.75;;;21.90;60.06
37852;BME280;23691;52.486;4.650;2023-09-19T11:58:12;100598.38;;;21.88;60.27
37852;BME280;23691;52.486;4.650;2023-09-19T12:00:39;100616.84;;;21.86;60.45
37852;BME280;23691;52.486;4.650;2023-09-19T12:03:10;100610.84;;;22.01;60.23
37852;BME280;23691;52.486;4.650;2023-09-19T12:05:36;100589.97;;;22.06;60.18
37852;BME280;23691;52.486;4.650;2023-09-19T12:08:04;100604.00;;;21.98;60.64
37852;BME280;23691;52.486;4.650;2023-09-19T12:10:44;100591.03;;;22.05;60.55
37852;BME280;23691;52.486;4.650;2023-09-19T12:13:09;100610.97;;;22.23;60.76
37852;BME280;23691;52.486;4.650;2023-09-19T12:15:37;100600.03;;;22.57;60.00
37852;BME280;23691;52.486;4.650;2023-09-19T12:18:05;100599.63;;;22.65;60.35
37852;BME280;23691;52.486;4.650;2023-09-19T12:20:46;100613.78;;;23.01;60.13
37852;BME280;23691;52.486;4.650;2023-09-19T12:23:18;100608.72;;;22.92;59.68
37852;BME280;23691;52.486;4.650;2023-09-19T12:25:45;100590.84;;;22.80;59.49
37852;BME280;23691;52.486;4.650;2023-09-19T12:28:12;100575.00;;;22.99;59.06
37852;BME280;23691;52.486;4.650;2023-09-19T12:30:38;100569.75;;;23.14;58.87
37852;BME280;23691;52.486;4.650;2023-09-19T12:33:18;100563.78;;;23.17;58.70
37852;BME280;23691;52.486;4.650;2023-09-19T12:35:51;100568.47;;;23.22;58.75
37852;BME280;23691;52.486;4.650;2023-09-19T12:38:27;100570.69;;;23.25;58.96
37852;BME280;23691;52.486;4.650;2023-09-19T12:41:01;100574.69;;;23.17;58.81
37852;BME280;23691;52.486;4.650;2023-09-19T12:43:33;100564.03;;;23.15;58.40
37852;BME280;23691;52.486;4.650;2023-09-19T12:45:59;100573.75;;;23.06;58.52
37852;BME280;23691;52.486;4.650;2023-09-19T12:48:28;100554.91;;;23.05;58.26
37852;BME280;23691;52.486;4.650;2023-09-19T12:51:09;100577.84;;;22.87;58.02
37852;BME280;23691;52.486;4.650;2023-09-19T12:53:42;100571.91;;;22.73;58.12
37852;BME280;23691;52.486;4.650;2023-09-19T12:56:13;100580.28;;;22.66;58.65
37852;BME280;23691;52.486;4.650;2023-09-19T12:58:54;100585.66;;;22.61;58.81
37852;BME280;23691;52.486;4.650;2023-09-19T13:01:24;100584.44;;;22.52;59.29
37852;BME280;23691;52.486;4.650;2023-09-19T13:06:51;100566.22;;;22.75;58.85
37852;BME280;23691;52.486;4.650;2023-09-19T13:09:22;100564.84;;;22.94;59.05
37852;BME280;23691;52.486;4.650;2023-09-19T13:11:52;100569.25;;;23.17;58.46
37852;BME280;23691;52.486;4.650;2023-09-19T13:14:23;100566.44;;;23.34;57.74
37852;BME280;23691;52.486;4.650;2023-09-19T13:17:05;100574.78;;;23.49;57.67
37852;BME280;23691;52.486;4.650;2023-09-19T13:19:47;100581.72;;;23.35;57.73
37852;BME280;23691;52.486;4.650;2023-09-19T13:22:39;100573.47;;;23.30;57.95
37852;BME280;23691;52.486;4.650;2023-09-19T13:25:07;100550.91;;;23.12;58.19
37852;BME280;23691;52.486;4.650;2023-09-19T13:27:33;100564.03;;;23.15;58.41
37852;BME280;23691;52.486;4.650;2023-09-19T13:29:59;100586.50;;;23.23;58.30
37852;BME280;23691;52.486;4.650;2023-09-19T13:32:25;100582.50;;;23.08;58.24
37852;BME280;23691;52.486;4.650;2023-09-19T13:34:51;100580.56;;;23.04;58.80
37852;BME280;23691;52.486;4.650;2023-09-19T13:37:16;100586.31;;;23.07;58.46
37852;BME280;23691;52.486;4.650;2023-09-19T13:39:43;100574.44;;;23.19;58.58
37852;BME280;23691;52.486;4.650;2023-09-19T13:42:13;100572.53;;;23.19;58.53